sensor_id;sensor_type;location;lat;lon;timestamp;P1;durP1;ratioP1;P2;durP2;ratioP2
4806;SDS011;2417;52.482;13.432;2023-05-20T00:00:31;32.17;;;4.47;;
4806;SDS011;2417;52.482;13.432;2023-05-20T00:02:59;33.53;;;5.60;;
4806;SDS011;2417;52.482;13.432;2023-05-20T00:05:27;31.53;;;4.20;;
4806;SDS011;2417;52.482;13.432;2023-05-20T00:07:55;35.17;;;6.13;;
4806;SDS011;2417;52.482;13.432;2023-05-20T00:10:23;36.03;;;4.60;;
4806;SDS011;2417;52.482;13.432;2023-05-20T00:12:52;32.33;;;4.70;;
4806;SDS011;2417;52.482;13.432;2023-05-20T00:15:20;35.90;;;5.37;;
4806;SDS011;2417;52.482;13.432;2023-05-20T00:17:48;31.63;;;4.10;;
4806;SDS011;2417;52.482;13.432;2023-05-20T00:20:16;34.30;;;5.67;;
4806;SDS011;2417;52.482;13.432;2023-05-20T00:22:44;32.20;;;4.37;;
4806;SDS011;2417;52.482;13.432;2023-05-20T00:25:12;34.40;;;5.13;;
4806;SDS011;2417;52.482;13.432;2023-05-20T00:27:41;32.07;;;4.20;;
4806;SDS011;2417;52.482;13.432;2023-05-20T00:30:11;35.80;;;4.67;;
4806;SDS011;2417;52.482;13.432;2023-05-20T00:32:39;32.77;;;4.83;;
4806;SDS011;2417;52.482;13.432;2023-05-20T00:35:07;32.23;;;4.63;;
4806;SDS011;2417;52.482;13.432;2023-05-20T00:37:36;37.27;;;5.17;;
4806;SDS011;2417;52.482;13.432;2023-05-20T00:40:04;36.13;;;4.80;;
4806;SDS011;2417;52.482;13.432;2023-05-20T00:42:32;32.70;;;4.03;;
4806;SDS011;2417;52.482;13.432;2023-05-20T00:45:00;34.53;;;4.30;;
4806;SDS011;2417;52.482;13.432;2023-05-20T00:47:30;31.10;;;4.40;;
4806;SDS011;2417;52.482;13.432;2023-05-20T00:49:59;31.63;;;4.73;;
4806;SDS011;2417;52.482;13.432;2023-05-20T00:52:28;33.50;;;5.27;;
4806;SDS011;2417;52.482;13.432;2023-05-20T00:54:57;30.73;;;4.33;;
4806;SDS011;2417;52.482;13.432;2023-05-20T00:57:25;31.90;;;5.27;;
4806;SDS011;2417;52.482;13.432;2023-05-20T00:59:53;32.73;;;4.60;;
4806;SDS011;2417;52.482;13.432;2023-05-20T01:02:22;33.20;;;4.90;;
4806;SDS011;2417;52.482;13.432;2023-05-20T01:04:53;32.20;;;4.60;;
4806;SDS011;2417;52.482;13.432;2023-05-20T01:07:22;36.27;;;5.10;;
4806;SDS011;2417;52.482;13.432;2023-05-20T01:09:51;33.03;;;4.97;;
4806;SDS011;2417;52.482;13.432;2023-05-20T01:12:21;34.90;;;5.23;;
4806;SDS011;2417;52.482;13.432;2023-05-20T01:14:55;40.43;;;6.13;;
4806;SDS011;2417;52.482;13.432;2023-05-20T01:17:26;30.30;;;4.53;;
4806;SDS011;2417;52.482;13.432;2023-05-20T01:20:02;42.20;;;8.03;;
4806;SDS011;2417;52.482;13.432;2023-05-20T01:22:35;35.30;;;6.63;;
4806;SDS011;2417;52.482;13.432;2023-05-20T01:25:03;50.43;;;10.17;;
4806;SDS011;2417;52.482;13.432;2023-05-20T01:27:31;60.63;;;17.03;;
4806;SDS011;2417;52.482;13.432;2023-05-20T01:29:59;34.90;;;5.83;;
4806;SDS011;2417;52.482;13.432;2023-05-20T01:32:30;31.93;;;5.33;;
4806;SDS011;2417;52.482;13.432;2023-05-20T01:34:58;35.67;;;6.37;;
4806;SDS011;2417;52.482;13.432;2023-05-20T01:37:27;31.77;;;5.40;;
4806;SDS011;2417;52.482;13.432;2023-05-20T01:39:57;31.50;;;5.90;;
4806;SDS011;2417;52.482;13.432;2023-05-20T01:42:25;30.67;;;5.10;;
4806;SDS011;2417;52.482;13.432;2023-05-20T01:44:53;28.67;;;4.87;;
4806;SDS011;2417;52.482;13.432;2023-05-20T01:47:22;45.40;;;8.17;;
4806;SDS011;2417;52.482;13.432;2023-05-20T01:49:57;33.67;;;6.30;;
4806;SDS011;2417;52.482;13.432;2023-05-20T01:52:27;32.10;;;5.50;;
4806;SDS011;2417;52.482;13.432;2023-05-20T01:54:55;32.83;;;6.03;;
4806;SDS011;2417;52.482;13.432;2023-05-20T01:57:23;36.10;;;5.33;;
4806;SDS011;2417;52.482;13.432;2023-05-20T01:59:52;31.27;;;6.07;;
4806;SDS011;2417;52.482;13.432;2023-05-20T02:02:20;32.60;;;5.97;;
4806;SDS011;2417;52.482;13.432;2023-05-20T02:04:49;42.50;;;6.23;;
4806;SDS011;2417;52.482;13.432;2023-05-20T02:07:18;32.10;;;5.70;;
4806;SDS011;2417;52.482;13.432;2023-05-20T02:09:46;30.63;;;5.60;;
4806;SDS011;2417;52.482;13.432;2023-05-20T02:12:14;32.63;;;5.10;;
4806;SDS011;2417;52.482;13.432;2023-05-20T02:14:43;32.77;;;5.33;;
4806;SDS011;2417;52.482;13.432;2023-05-20T02:17:11;31.60;;;5.93;;
4806;SDS011;2417;52.482;13.432;2023-05-20T02:19:40;31.73;;;5.17;;
4806;SDS011;2417;52.482;13.432;2023-05-20T02:22:08;31.07;;;5.70;;
4806;SDS011;2417;52.482;13.432;2023-05-20T02:24:37;31.00;;;4.80;;
4806;SDS011;2417;52.482;13.432;2023-05-20T02:27:06;32.53;;;5.67;;
4806;SDS011;2417;52.482;13.432;2023-05-20T02:29:34;30.97;;;5.30;;
4806;SDS011;2417;52.482;13.432;2023-05-20T02:32:02;32.67;;;4.83;;
4806;SDS011;2417;52.482;13.432;2023-05-20T02:34:30;31.03;;;5.50;;
4806;SDS011;2417;52.482;13.432;2023-05-20T02:36:59;34.70;;;5.60;;
4806;SDS011;2417;52.482;13.432;2023-05-20T02:39:28;34.40;;;6.83;;
4806;SDS011;2417;52.482;13.432;2023-05-20T02:41:57;32.53;;;5.30;;
4806;SDS011;2417;52.482;13.432;2023-05-20T02:44:25;33.80;;;6.50;;
4806;SDS011;2417;52.482;13.432;2023-05-20T02:46:55;34.97;;;7.33;;
4806;SDS011;2417;52.482;13.432;2023-05-20T02:49:22;38.93;;;6.23;;
4806;SDS011;2417;52.482;13.432;2023-05-20T02:51:51;34.50;;;5.97;;
4806;SDS011;2417;52.482;13.432;2023-05-20T02:54:19;30.37;;;5.00;;
4806;SDS011;2417;52.482;13.432;2023-05-20T02:56:47;34.80;;;6.63;;
4806;SDS011;2417;52.482;13.432;2023-05-20T02:59:16;31.97;;;5.00;;
4806;SDS011;2417;52.482;13.432;2023-05-20T03:01:44;30.87;;;4.70;;
4806;SDS011;2417;52.482;13.432;2023-05-20T03:04:12;31.97;;;4.83;;
4806;SDS011;2417;52.482;13.432;2023-05-20T03:06:41;30.83;;;4.93;;
4806;SDS011;2417;52.482;13.432;2023-05-20T03:09:10;39.33;;;7.70;;
4806;SDS011;2417;52.482;13.432;2023-05-20T03:12:00;32.90;;;6.10;;
4806;SDS011;2417;52.482;13.432;2023-05-20T03:14:30;32.47;;;5.47;;
4806;SDS011;2417;52.482;13.432;2023-05-20T03:16:58;33.53;;;5.20;;
4806;SDS011;2417;52.482;13.432;2023-05-20T03:19:26;32.30;;;4.90;;
4806;SDS011;2417;52.482;13.432;2023-05-20T03:21:54;32.03;;;5.10;;
4806;SDS011;2417;52.482;13.432;2023-05-20T03:24:24;32.10;;;5.17;;
4806;SDS011;2417;52.482;13.432;2023-05-20T03:26:51;31.27;;;4.80;;
4806;SDS011;2417;52.482;13.432;2023-05-20T03:29:19;30.63;;;5.40;;
4806;SDS011;2417;52.482;13.432;2023-05-20T03:31:49;33.50;;;5.33;;
4806;SDS011;2417;52.482;13.432;2023-05-20T03:34:17;34.27;;;5.00;;
4806;SDS011;2417;52.482;13.432;2023-05-20T03:36:47;32.23;;;5.37;;
4806;SDS011;2417;52.482;13.432;2023-05-20T03:39:14;34.70;;;5.70;;
4806;SDS011;2417;52.482;13.432;2023-05-20T03:41:44;31.70;;;5.20;;
4806;SDS011;2417;52.482;13.432;2023-05-20T03:44:12;32.83;;;5.70;;
4806;SDS011;2417;52.482;13.432;2023-05-20T03:46:40;34.17;;;5.00;;
4806;SDS011;2417;52.482;13.432;2023-05-20T03:49:09;36.00;;;5.50;;
4806;SDS011;2417;52.482;13.432;2023-05-20T03:51:39;32.80;;;5.43;;
4806;SDS011;2417;52.482;13.432;2023-05-20T03:54:10;35.80;;;5.73;;
4806;SDS011;2417;52.482;13.432;2023-05-20T03:56:39;33.50;;;4.90;;
4806;SDS011;2417;52.482;13.432;2023-05-20T03:59:08;32.23;;;5.10;;
4806;SDS011;2417;52.482;13.432;2023-05-20T04:01:36;34.23;;;5.73;;
4806;SDS011;2417;52.482;13.432;2023-05-20T04:04:04;36.30;;;5.73;;
4806;SDS011;2417;52.482;13.432;2023-05-20T04:06:34;35.73;;;5.03;;
4806;SDS011;2417;52.482;13.432;2023-05-20T04:09:02;32.77;;;5.33;;
4806;SDS011;2417;52.482;13.432;2023-05-20T04:11:30;32.10;;;5.20;;
4806;SDS011;2417;52.482;13.432;2023-05-20T04:13:58;31.60;;;5.20;;
4806;SDS011;2417;52.482;13.432;2023-05-20T04:16:27;33.83;;;5.07;;
4806;SDS011;2417;52.482;13.432;2023-05-20T04:18:56;36.27;;;5.17;;
4806;SDS011;2417;52.482;13.432;2023-05-20T04:21:25;33.00;;;5.77;;
4806;SDS011;2417;52.482;13.432;2023-05-20T04:23:54;33.70;;;5.87;;
4806;SDS011;2417;52.482;13.432;2023-05-20T04:26:23;40.47;;;6.07;;
4806;SDS011;2417;52.482;13.432;2023-05-20T04:28:51;40.13;;;5.93;;
4806;SDS011;2417;52.482;13.432;2023-05-20T04:31:19;33.53;;;5.50;;
4806;SDS011;2417;52.482;13.432;2023-05-20T04:33:52;31.50;;;5.20;;
4806;SDS011;2417;52.482;13.432;2023-05-20T04:36:21;40.57;;;5.33;;
4806;SDS011;2417;52.482;13.432;2023-05-20T04:38:55;31.87;;;5.37;;
4806;SDS011;2417;52.482;13.432;2023-05-20T04:41:23;33.77;;;5.00;;
4806;SDS011;2417;52.482;13.432;2023-05-20T04:43:51;33.70;;;5.47;;
4806;SDS011;2417;52.482;13.432;2023-05-20T04:46:20;45.67;;;5.30;;
4806;SDS011;2417;52.482;13.432;2023-05-20T04:48:48;33.77;;;5.23;;
4806;SDS011;2417;52.482;13.432;2023-05-20T04:51:16;33.23;;;5.73;;
4806;SDS011;2417;52.482;13.432;2023-05-20T04:53:44;35.00;;;5.30;;
4806;SDS011;2417;52.482;13.432;2023-05-20T04:56:13;33.97;;;5.10;;
4806;SDS011;2417;52.482;13.432;2023-05-20T04:58:41;37.73;;;6.77;;
4806;SDS011;2417;52.482;13.432;2023-05-20T05:01:09;37.13;;;5.97;;
4806;SDS011;2417;52.482;13.432;2023-05-20T05:03:37;32.90;;;5.13;;
4806;SDS011;2417;52.482;13.432;2023-05-20T05:06:06;35.03;;;5.20;;
4806;SDS011;2417;52.482;13.432;2023-05-20T05:08:35;33.17;;;5.93;;
4806;SDS011;2417;52.482;13.432;2023-05-20T05:11:04;31.23;;;5.40;;
4806;SDS011;2417;52.482;13.432;2023-05-20T05:13:33;33.10;;;5.57;;
4806;SDS011;2417;52.482;13.432;2023-05-20T05:16:01;33.70;;;5.33;;
4806;SDS011;2417;52.482;13.432;2023-05-20T05:18:31;34.97;;;5.83;;
4806;SDS011;2417;52.482;13.432;2023-05-20T05:20:59;33.37;;;5.67;;
4806;SDS011;2417;52.482;13.432;2023-05-20T05:23:27;32.73;;;5.53;;
4806;SDS011;2417;52.482;13.432;2023-05-20T05:25:55;33.30;;;5.80;;
4806;SDS011;2417;52.482;13.432;2023-05-20T05:28:23;36.50;;;5.70;;
4806;SDS011;2417;52.482;13.432;2023-05-20T05:30:54;33.10;;;5.57;;
4806;SDS011;2417;52.482;13.432;2023-05-20T05:33:22;34.30;;;5.20;;
4806;SDS011;2417;52.482;13.432;2023-05-20T05:35:51;36.43;;;6.33;;
4806;SDS011;2417;52.482;13.432;2023-05-20T05:38:19;37.80;;;6.20;;
4806;SDS011;2417;52.482;13.432;2023-05-20T05:40:47;31.20;;;5.90;;
4806;SDS011;2417;52.482;13.432;2023-05-20T05:43:15;35.13;;;6.20;;
4806;SDS011;2417;52.482;13.432;2023-05-20T05:45:46;34.50;;;6.70;;
4806;SDS011;2417;52.482;13.432;2023-05-20T05:48:16;34.57;;;6.60;;
4806;SDS011;2417;52.482;13.432;2023-05-20T05:50:45;35.70;;;6.17;;
4806;SDS011;2417;52.482;13.432;2023-05-20T05:53:15;36.80;;;6.50;;
4806;SDS011;2417;52.482;13.432;2023-05-20T05:55:46;37.10;;;6.30;;
4806;SDS011;2417;52.482;13.432;2023-05-20T05:58:15;36.20;;;6.93;;
4806;SDS011;2417;52.482;13.432;2023-05-20T06:00:43;34.57;;;6.60;;
4806;SDS011;2417;52.482;13.432;2023-05-20T06:03:11;36.77;;;6.20;;
4806;SDS011;2417;52.482;13.432;2023-05-20T06:05:40;34.27;;;6.50;;
4806;SDS011;2417;52.482;13.432;2023-05-20T06:08:11;34.43;;;6.90;;
4806;SDS011;2417;52.482;13.432;2023-05-20T06:10:39;36.40;;;6.57;;
4806;SDS011;2417;52.482;13.432;2023-05-20T06:13:08;35.90;;;6.63;;
4806;SDS011;2417;52.482;13.432;2023-05-20T06:15:36;36.97;;;6.23;;
4806;SDS011;2417;52.482;13.432;2023-05-20T06:18:04;43.00;;;6.73;;
4806;SDS011;2417;52.482;13.432;2023-05-20T06:20:32;35.80;;;6.90;;
4806;SDS011;2417;52.482;13.432;2023-05-20T06:23:01;37.43;;;6.60;;
4806;SDS011;2417;52.482;13.432;2023-05-20T06:25:38;36.47;;;7.20;;
4806;SDS011;2417;52.482;13.432;2023-05-20T06:28:07;36.53;;;7.27;;
4806;SDS011;2417;52.482;13.432;2023-05-20T06:30:36;36.93;;;6.97;;
4806;SDS011;2417;52.482;13.432;2023-05-20T06:33:04;36.60;;;6.97;;
4806;SDS011;2417;52.482;13.432;2023-05-20T06:35:33;38.73;;;6.40;;
4806;SDS011;2417;52.482;13.432;2023-05-20T06:38:04;40.10;;;7.30;;
4806;SDS011;2417;52.482;13.432;2023-05-20T06:40:32;36.87;;;6.97;;
4806;SDS011;2417;52.482;13.432;2023-05-20T06:43:00;38.90;;;7.00;;
4806;SDS011;2417;52.482;13.432;2023-05-20T06:46:00;35.80;;;6.57;;
4806;SDS011;2417;52.482;13.432;2023-05-20T06:48:35;35.40;;;6.40;;
4806;SDS011;2417;52.482;13.432;2023-05-20T06:51:05;37.90;;;6.60;;
4806;SDS011;2417;52.482;13.432;2023-05-20T06:53:35;39.03;;;6.60;;
4806;SDS011;2417;52.482;13.432;2023-05-20T06:56:05;36.87;;;7.07;;
4806;SDS011;2417;52.482;13.432;2023-05-20T06:58:33;38.60;;;6.57;;
4806;SDS011;2417;52.482;13.432;2023-05-20T07:01:01;35.67;;;6.87;;
4806;SDS011;2417;52.482;13.432;2023-05-20T07:03:31;35.30;;;6.83;;
4806;SDS011;2417;52.482;13.432;2023-05-20T07:06:00;37.60;;;7.30;;
4806;SDS011;2417;52.482;13.432;2023-05-20T07:08:28;39.93;;;7.83;;
4806;SDS011;2417;52.482;13.432;2023-05-20T07:10:57;37.07;;;7.00;;
4806;SDS011;2417;52.482;13.432;2023-05-20T07:13:25;42.90;;;7.33;;
4806;SDS011;2417;52.482;13.432;2023-05-20T07:15:53;40.97;;;6.90;;
4806;SDS011;2417;52.482;13.432;2023-05-20T07:18:22;36.23;;;6.27;;
4806;SDS011;2417;52.482;13.432;2023-05-20T07:20:52;42.43;;;6.90;;
4806;SDS011;2417;52.482;13.432;2023-05-20T07:23:42;36.03;;;6.83;;
4806;SDS011;2417;52.482;13.432;2023-05-20T07:26:12;37.23;;;6.90;;
4806;SDS011;2417;52.482;13.432;2023-05-20T07:28:40;37.43;;;6.90;;
4806;SDS011;2417;52.482;13.432;2023-05-20T07:31:10;43.03;;;6.87;;
4806;SDS011;2417;52.482;13.432;2023-05-20T07:33:41;42.57;;;7.40;;
4806;SDS011;2417;52.482;13.432;2023-05-20T07:36:11;38.57;;;6.60;;
4806;SDS011;2417;52.482;13.432;2023-05-20T07:38:41;35.93;;;6.23;;
4806;SDS011;2417;52.482;13.432;2023-05-20T07:41:31;36.47;;;6.30;;
4806;SDS011;2417;52.482;13.432;2023-05-20T07:44:00;37.10;;;6.47;;
4806;SDS011;2417;52.482;13.432;2023-05-20T07:46:28;35.00;;;5.97;;
4806;SDS011;2417;52.482;13.432;2023-05-20T07:48:56;42.00;;;6.80;;
4806;SDS011;2417;52.482;13.432;2023-05-20T07:51:24;38.27;;;6.00;;
4806;SDS011;2417;52.482;13.432;2023-05-20T07:53:53;37.73;;;6.67;;
4806;SDS011;2417;52.482;13.432;2023-05-20T07:56:21;40.87;;;5.77;;
4806;SDS011;2417;52.482;13.432;2023-05-20T07:58:54;44.53;;;6.80;;
4806;SDS011;2417;52.482;13.432;2023-05-20T08:01:27;39.03;;;6.70;;
4806;SDS011;2417;52.482;13.432;2023-05-20T08:03:55;38.17;;;6.30;;
4806;SDS011;2417;52.482;13.432;2023-05-20T08:06:24;37.97;;;6.27;;
4806;SDS011;2417;52.482;13.432;2023-05-20T08:08:56;38.67;;;6.03;;
4806;SDS011;2417;52.482;13.432;2023-05-20T08:11:29;38.77;;;6.50;;
4806;SDS011;2417;52.482;13.432;2023-05-20T08:14:00;38.10;;;6.20;;
4806;SDS011;2417;52.482;13.432;2023-05-20T08:16:35;39.87;;;6.63;;
4806;SDS011;2417;52.482;13.432;2023-05-20T08:19:04;37.93;;;6.27;;
4806;SDS011;2417;52.482;13.432;2023-05-20T08:21:32;38.60;;;6.57;;
4806;SDS011;2417;52.482;13.432;2023-05-20T08:24:02;39.17;;;6.20;;
4806;SDS011;2417;52.482;13.432;2023-05-20T08:26:31;38.77;;;6.43;;
4806;SDS011;2417;52.482;13.432;2023-05-20T08:29:01;38.37;;;5.97;;
4806;SDS011;2417;52.482;13.432;2023-05-20T08:31:28;37.30;;;6.43;;
4806;SDS011;2417;52.482;13.432;2023-05-20T08:33:58;42.70;;;6.33;;
4806;SDS011;2417;52.482;13.432;2023-05-20T08:36:26;42.57;;;6.43;;
4806;SDS011;2417;52.482;13.432;2023-05-20T08:38:54;41.97;;;6.10;;
4806;SDS011;2417;52.482;13.432;2023-05-20T08:41:22;39.27;;;5.90;;
4806;SDS011;2417;52.482;13.432;2023-05-20T08:43:51;40.23;;;6.70;;
4806;SDS011;2417;52.482;13.432;2023-05-20T08:46:22;40.50;;;6.50;;
4806;SDS011;2417;52.482;13.432;2023-05-20T08:48:50;39.67;;;6.57;;
4806;SDS011;2417;52.482;13.432;2023-05-20T08:51:19;36.93;;;5.63;;
4806;SDS011;2417;52.482;13.432;2023-05-20T08:53:49;41.07;;;6.37;;
4806;SDS011;2417;52.482;13.432;2023-05-20T08:56:17;40.77;;;6.40;;
4806;SDS011;2417;52.482;13.432;2023-05-20T08:58:45;44.10;;;6.20;;
4806;SDS011;2417;52.482;13.432;2023-05-20T09:01:13;38.00;;;6.30;;
4806;SDS011;2417;52.482;13.432;2023-05-20T09:03:43;41.27;;;7.50;;
4806;SDS011;2417;52.482;13.432;2023-05-20T09:06:15;44.77;;;6.63;;
4806;SDS011;2417;52.482;13.432;2023-05-20T09:08:43;41.23;;;6.67;;
4806;SDS011;2417;52.482;13.432;2023-05-20T09:11:12;39.07;;;6.73;;
4806;SDS011;2417;52.482;13.432;2023-05-20T09:13:40;41.00;;;7.17;;
4806;SDS011;2417;52.482;13.432;2023-05-20T09:16:08;40.30;;;6.80;;
4806;SDS011;2417;52.482;13.432;2023-05-20T09:18:37;40.17;;;6.77;;
4806;SDS011;2417;52.482;13.432;2023-05-20T09:21:06;41.90;;;7.40;;
4806;SDS011;2417;52.482;13.432;2023-05-20T09:23:37;37.80;;;6.40;;
4806;SDS011;2417;52.482;13.432;2023-05-20T09:26:05;40.10;;;6.83;;
4806;SDS011;2417;52.482;13.432;2023-05-20T09:28:33;42.13;;;7.17;;
4806;SDS011;2417;52.482;13.432;2023-05-20T09:31:04;42.47;;;7.40;;
4806;SDS011;2417;52.482;13.432;2023-05-20T09:33:32;40.63;;;8.20;;
4806;SDS011;2417;52.482;13.432;2023-05-20T09:36:02;40.07;;;8.30;;
4806;SDS011;2417;52.482;13.432;2023-05-20T09:38:32;41.83;;;8.00;;
4806;SDS011;2417;52.482;13.432;2023-05-20T09:41:05;40.20;;;7.57;;
4806;SDS011;2417;52.482;13.432;2023-05-20T09:43:35;43.33;;;8.40;;
4806;SDS011;2417;52.482;13.432;2023-05-20T09:46:03;41.53;;;8.40;;
4806;SDS011;2417;52.482;13.432;2023-05-20T09:48:31;43.20;;;9.00;;
4806;SDS011;2417;52.482;13.432;2023-05-20T09:50:59;43.07;;;8.93;;
4806;SDS011;2417;52.482;13.432;2023-05-20T09:53:28;44.60;;;8.47;;
4806;SDS011;2417;52.482;13.432;2023-05-20T09:55:58;45.03;;;9.50;;
4806;SDS011;2417;52.482;13.432;2023-05-20T09:58:26;44.90;;;9.53;;
4806;SDS011;2417;52.482;13.432;2023-05-20T10:00:55;45.27;;;9.30;;
4806;SDS011;2417;52.482;13.432;2023-05-20T10:03:23;52.90;;;10.03;;
4806;SDS011;2417;52.482;13.432;2023-05-20T10:05:57;44.90;;;9.30;;
4806;SDS011;2417;52.482;13.432;2023-05-20T10:08:35;46.80;;;9.90;;
4806;SDS011;2417;52.482;13.432;2023-05-20T10:11:09;44.93;;;10.70;;
4806;SDS011;2417;52.482;13.432;2023-05-20T10:13:47;45.33;;;9.57;;
4806;SDS011;2417;52.482;13.432;2023-05-20T10:16:23;45.43;;;9.97;;
4806;SDS011;2417;52.482;13.432;2023-05-20T10:18:57;43.60;;;9.30;;
4806;SDS011;2417;52.482;13.432;2023-05-20T10:21:27;44.23;;;9.70;;
4806;SDS011;2417;52.482;13.432;2023-05-20T10:24:04;45.33;;;10.20;;
4806;SDS011;2417;52.482;13.432;2023-05-20T10:26:35;47.13;;;11.00;;
4806;SDS011;2417;52.482;13.432;2023-05-20T10:29:13;46.90;;;10.47;;
4806;SDS011;2417;52.482;13.432;2023-05-20T10:31:44;45.00;;;8.77;;
4806;SDS011;2417;52.482;13.432;2023-05-20T10:34:15;46.17;;;10.83;;
4806;SDS011;2417;52.482;13.432;2023-05-20T10:36:45;46.70;;;10.23;;
4806;SDS011;2417;52.482;13.432;2023-05-20T10:39:14;45.30;;;9.60;;
4806;SDS011;2417;52.482;13.432;2023-05-20T10:41:44;46.10;;;9.50;;
4806;SDS011;2417;52.482;13.432;2023-05-20T10:44:12;45.20;;;9.03;;
4806;SDS011;2417;52.482;13.432;2023-05-20T10:46:40;45.20;;;9.20;;
4806;SDS011;2417;52.482;13.432;2023-05-20T10:49:17;44.70;;;9.33;;
4806;SDS011;2417;52.482;13.432;2023-05-20T10:51:52;44.23;;;8.67;;
4806;SDS011;2417;52.482;13.432;2023-05-20T10:54:21;44.63;;;9.43;;
4806;SDS011;2417;52.482;13.432;2023-05-20T10:56:51;45.60;;;9.30;;
4806;SDS011;2417;52.482;13.432;2023-05-20T10:59:20;45.50;;;10.07;;
4806;SDS011;2417;52.482;13.432;2023-05-20T11:01:49;43.10;;;9.20;;
4806;SDS011;2417;52.482;13.432;2023-05-20T11:04:16;45.17;;;8.90;;
4806;SDS011;2417;52.482;13.432;2023-05-20T11:06:51;44.63;;;9.70;;
4806;SDS011;2417;52.482;13.432;2023-05-20T11:09:21;46.53;;;9.67;;
4806;SDS011;2417;52.482;13.432;2023-05-20T11:11:49;49.30;;;10.90;;
4806;SDS011;2417;52.482;13.432;2023-05-20T11:14:19;47.10;;;9.63;;
4806;SDS011;2417;52.482;13.432;2023-05-20T11:16:50;44.17;;;9.87;;
4806;SDS011;2417;52.482;13.432;2023-05-20T11:19:22;43.80;;;9.57;;
4806;SDS011;2417;52.482;13.432;2023-05-20T11:21:50;44.50;;;10.23;;
4806;SDS011;2417;52.482;13.432;2023-05-20T11:24:22;44.17;;;9.50;;
4806;SDS011;2417;52.482;13.432;2023-05-20T11:26:52;43.83;;;9.70;;
4806;SDS011;2417;52.482;13.432;2023-05-20T11:29:24;44.33;;;10.13;;
4806;SDS011;2417;52.482;13.432;2023-05-20T11:31:58;45.70;;;9.77;;
4806;SDS011;2417;52.482;13.432;2023-05-20T11:34:31;43.30;;;9.53;;
4806;SDS011;2417;52.482;13.432;2023-05-20T11:36:59;46.03;;;10.10;;
4806;SDS011;2417;52.482;13.432;2023-05-20T11:39:28;48.90;;;10.20;;
4806;SDS011;2417;52.482;13.432;2023-05-20T11:41:56;44.13;;;9.67;;
4806;SDS011;2417;52.482;13.432;2023-05-20T11:44:26;43.97;;;10.00;;
4806;SDS011;2417;52.482;13.432;2023-05-20T11:46:58;45.17;;;10.03;;
4806;SDS011;2417;52.482;13.432;2023-05-20T11:49:26;43.20;;;9.20;;
4806;SDS011;2417;52.482;13.432;2023-05-20T11:51:55;43.40;;;9.90;;
4806;SDS011;2417;52.482;13.432;2023-05-20T11:54:23;50.93;;;12.23;;
4806;SDS011;2417;52.482;13.432;2023-05-20T11:56:52;45.23;;;10.43;;
4806;SDS011;2417;52.482;13.432;2023-05-20T11:59:22;47.37;;;10.87;;
4806;SDS011;2417;52.482;13.432;2023-05-20T12:01:52;49.40;;;14.00;;
4806;SDS011;2417;52.482;13.432;2023-05-20T12:04:20;44.93;;;10.20;;
4806;SDS011;2417;52.482;13.432;2023-05-20T12:06:48;46.47;;;9.93;;
4806;SDS011;2417;52.482;13.432;2023-05-20T12:09:16;45.40;;;10.70;;
4806;SDS011;2417;52.482;13.432;2023-05-20T12:11:44;46.07;;;9.90;;
4806;SDS011;2417;52.482;13.432;2023-05-20T12:14:12;52.00;;;11.90;;
4806;SDS011;2417;52.482;13.432;2023-05-20T12:16:40;43.20;;;9.17;;
4806;SDS011;2417;52.482;13.432;2023-05-20T12:19:09;45.10;;;10.37;;
4806;SDS011;2417;52.482;13.432;2023-05-20T12:21:37;44.17;;;8.43;;
4806;SDS011;2417;52.482;13.432;2023-05-20T12:24:05;45.27;;;9.43;;
4806;SDS011;2417;52.482;13.432;2023-05-20T12:26:34;47.10;;;9.70;;
4806;SDS011;2417;52.482;13.432;2023-05-20T12:29:02;44.13;;;9.70;;
4806;SDS011;2417;52.482;13.432;2023-05-20T12:31:30;42.70;;;9.70;;
4806;SDS011;2417;52.482;13.432;2023-05-20T12:34:00;43.10;;;10.67;;
4806;SDS011;2417;52.482;13.432;2023-05-20T12:36:30;43.40;;;11.37;;
4806;SDS011;2417;52.482;13.432;2023-05-20T12:38:59;40.17;;;9.90;;
4806;SDS011;2417;52.482;13.432;2023-05-20T12:41:27;41.97;;;9.80;;
4806;SDS011;2417;52.482;13.432;2023-05-20T12:43:55;43.30;;;9.73;;
4806;SDS011;2417;52.482;13.432;2023-05-20T12:46:23;38.60;;;9.43;;
4806;SDS011;2417;52.482;13.432;2023-05-20T12:48:51;38.83;;;9.50;;
4806;SDS011;2417;52.482;13.432;2023-05-20T12:51:19;43.70;;;9.80;;
4806;SDS011;2417;52.482;13.432;2023-05-20T12:53:49;47.20;;;11.63;;
4806;SDS011;2417;52.482;13.432;2023-05-20T12:56:17;43.63;;;9.63;;
4806;SDS011;2417;52.482;13.432;2023-05-20T12:58:47;43.73;;;9.60;;
4806;SDS011;2417;52.482;13.432;2023-05-20T13:01:15;44.93;;;9.37;;
4806;SDS011;2417;52.482;13.432;2023-05-20T13:03:43;43.00;;;10.23;;
4806;SDS011;2417;52.482;13.432;2023-05-20T13:06:11;45.67;;;9.33;;
4806;SDS011;2417;52.482;13.432;2023-05-20T13:08:39;47.80;;;9.13;;
4806;SDS011;2417;52.482;13.432;2023-05-20T13:11:08;46.30;;;9.83;;
4806;SDS011;2417;52.482;13.432;2023-05-20T13:13:36;41.90;;;9.20;;
4806;SDS011;2417;52.482;13.432;2023-05-20T13:16:08;39.87;;;8.90;;
4806;SDS011;2417;52.482;13.432;2023-05-20T13:18:37;41.87;;;9.40;;
4806;SDS011;2417;52.482;13.432;2023-05-20T13:21:06;38.90;;;9.13;;
4806;SDS011;2417;52.482;13.432;2023-05-20T13:23:34;39.47;;;8.80;;
4806;SDS011;2417;52.482;13.432;2023-05-20T13:26:02;40.43;;;9.40;;
4806;SDS011;2417;52.482;13.432;2023-05-20T13:28:32;42.53;;;9.80;;
4806;SDS011;2417;52.482;13.432;2023-05-20T13:31:00;36.60;;;8.60;;
4806;SDS011;2417;52.482;13.432;2023-05-20T13:33:28;38.70;;;9.90;;
4806;SDS011;2417;52.482;13.432;2023-05-20T13:35:57;36.70;;;8.60;;
4806;SDS011;2417;52.482;13.432;2023-05-20T13:38:25;40.23;;;8.97;;
4806;SDS011;2417;52.482;13.432;2023-05-20T13:40:53;38.17;;;8.70;;
4806;SDS011;2417;52.482;13.432;2023-05-20T13:43:24;39.27;;;9.70;;
4806;SDS011;2417;52.482;13.432;2023-05-20T13:45:55;41.13;;;9.47;;
4806;SDS011;2417;52.482;13.432;2023-05-20T13:48:24;38.03;;;8.63;;
4806;SDS011;2417;52.482;13.432;2023-05-20T13:50:52;38.67;;;9.03;;
4806;SDS011;2417;52.482;13.432;2023-05-20T13:53:19;39.67;;;9.07;;
4806;SDS011;2417;52.482;13.432;2023-05-20T13:55:47;37.77;;;8.57;;
4806;SDS011;2417;52.482;13.432;2023-05-20T13:58:15;37.27;;;9.10;;
4806;SDS011;2417;52.482;13.432;2023-05-20T14:00:43;47.10;;;9.00;;
4806;SDS011;2417;52.482;13.432;2023-05-20T14:03:13;41.13;;;9.50;;
4806;SDS011;2417;52.482;13.432;2023-05-20T14:05:41;37.07;;;8.40;;
4806;SDS011;2417;52.482;13.432;2023-05-20T14:08:09;39.20;;;8.77;;
4806;SDS011;2417;52.482;13.432;2023-05-20T14:10:37;35.87;;;8.33;;
4806;SDS011;2417;52.482;13.432;2023-05-20T14:13:05;39.80;;;8.97;;
4806;SDS011;2417;52.482;13.432;2023-05-20T14:15:36;38.20;;;9.30;;
4806;SDS011;2417;52.482;13.432;2023-05-20T14:18:03;54.40;;;11.03;;
4806;SDS011;2417;52.482;13.432;2023-05-20T14:20:33;39.97;;;9.17;;
4806;SDS011;2417;52.482;13.432;2023-05-20T14:23:01;38.70;;;9.80;;
4806;SDS011;2417;52.482;13.432;2023-05-20T14:25:29;41.43;;;9.60;;
4806;SDS011;2417;52.482;13.432;2023-05-20T14:27:57;36.17;;;8.70;;
4806;SDS011;2417;52.482;13.432;2023-05-20T14:30:25;35.30;;;8.30;;
4806;SDS011;2417;52.482;13.432;2023-05-20T14:32:53;42.70;;;9.17;;
4806;SDS011;2417;52.482;13.432;2023-05-20T14:35:21;37.90;;;8.57;;
4806;SDS011;2417;52.482;13.432;2023-05-20T14:37:51;38.30;;;8.50;;
4806;SDS011;2417;52.482;13.432;2023-05-20T14:40:19;37.03;;;8.50;;
4806;SDS011;2417;52.482;13.432;2023-05-20T14:42:47;41.73;;;8.90;;
4806;SDS011;2417;52.482;13.432;2023-05-20T14:45:15;41.77;;;8.67;;
4806;SDS011;2417;52.482;13.432;2023-05-20T14:47:43;37.80;;;8.23;;
4806;SDS011;2417;52.482;13.432;2023-05-20T14:50:11;35.27;;;7.97;;
4806;SDS011;2417;52.482;13.432;2023-05-20T14:52:39;35.10;;;7.43;;
4806;SDS011;2417;52.482;13.432;2023-05-20T14:55:10;36.03;;;7.83;;
4806;SDS011;2417;52.482;13.432;2023-05-20T14:57:38;38.03;;;7.60;;